Clyde River Airport


Codes: CYCY/YCY
Name: Clyde River Airport
City: Clyde River
Country: Canada
Elevation: 87 ft.
Wikipedia:

Photos at Clyde River Airport


   Photos courtesy of SpottingLog. You can add your own sightings and photos by signing up for a free trial today.



No photos found.

Weather at Clyde River Airport


Time (UTC)DescriptionTempratureWindCloud coverageVisibilityPressureHumidity
18-Apr-2024 00:00Overcast Clouds-10°C4 mph, NW100%10000m1027hPa90%
18-Apr-2024 03:00Overcast Clouds-12°C4 mph, W99%10000m1027hPa93%
18-Apr-2024 06:00Overcast Clouds-16°C2 mph, W97%10000m1026hPa97%
18-Apr-2024 09:00Broken Clouds-17°C2 mph, SW84%10000m1026hPa98%
18-Apr-2024 12:00Broken Clouds-14°C7 mph, S62%10000m1024hPa88%
18-Apr-2024 15:00Few Clouds-11°C9 mph, S23%10000m1022hPa88%
18-Apr-2024 18:00Few Clouds-9°C9 mph, SE23%10000m1018hPa85%
18-Apr-2024 21:00Broken Clouds-9°C4 mph, SE78%10000m1016hPa90%
19-Apr-2024 00:00Overcast Clouds-10°C2 mph, W89%10000m1014hPa90%
19-Apr-2024 03:00Overcast Clouds-9°C11 mph, NW100%3281m1013hPa91%
19-Apr-2024 06:00Light Snow-10°C16 mph, NW100%418m1012hPa92%
19-Apr-2024 09:00Light Snow-14°C25 mph, NW100%2560m1012hPa91%
19-Apr-2024 12:00Overcast Clouds-17°C20 mph, NW99%8260m1011hPa89%
19-Apr-2024 15:00Overcast Clouds-18°C16 mph, NW99%5780m1011hPa88%
19-Apr-2024 18:00Overcast Clouds-18°C13 mph, NW99%7832m1010hPa87%
19-Apr-2024 21:00Overcast Clouds-19°C9 mph, NW100%5884m1009hPa90%
20-Apr-2024 00:00Overcast Clouds-22°C9 mph, NW100%2333m1008hPa97%
20-Apr-2024 03:00Overcast Clouds-24°C4 mph, NW100%1695m1008hPa99%
20-Apr-2024 06:00Overcast Clouds-25°C4 mph, NW100%1335m1008hPa99%
20-Apr-2024 09:00Overcast Clouds-27°C2 mph, NW100%1782m1008hPa100%
20-Apr-2024 12:00Overcast Clouds-25°C2 mph, NW99%2736m1008hPa96%
20-Apr-2024 15:00Overcast Clouds-23°C2 mph, NE100%3674m1009hPa87%
20-Apr-2024 18:00Overcast Clouds-22°C2 mph, NE100%5652m1010hPa81%
20-Apr-2024 21:00Overcast Clouds-21°C2 mph, NE100%6004m1011hPa84%
21-Apr-2024 00:00Overcast Clouds-23°C4 mph, N100%2809m1012hPa98%
21-Apr-2024 03:00Overcast Clouds-23°C7 mph, N100%1499m1013hPa99%
21-Apr-2024 06:00Overcast Clouds-23°C9 mph, NW100%1001m1013hPa97%
21-Apr-2024 09:00Light Snow-23°C9 mph, NW100%407m1013hPa97%
21-Apr-2024 12:00Light Snow-22°C11 mph, NW100%241m1012hPa95%
21-Apr-2024 15:00Light Snow-20°C11 mph, NW100%203m1011hPa95%
21-Apr-2024 18:00Light Snow-19°C11 mph, NW100%215m1011hPa94%
21-Apr-2024 21:00Light Snow-18°C11 mph, NW100%1086m1011hPa90%
22-Apr-2024 00:00Overcast Clouds-18°C9 mph, NW100%1438m1012hPa93%
22-Apr-2024 03:00Overcast Clouds-18°C7 mph, NW100%10000m1013hPa92%
22-Apr-2024 06:00Overcast Clouds-23°C4 mph, NW88%10000m1015hPa93%
22-Apr-2024 09:00Scattered Clouds-23°C4 mph, W47%10000m1017hPa92%
22-Apr-2024 12:00Broken Clouds-18°C2 mph, N66%10000m1019hPa85%
22-Apr-2024 15:00Broken Clouds-15°C2 mph, N66%10000m1018hPa84%
22-Apr-2024 18:00Broken Clouds-14°C4 mph, N83%4350m1018hPa89%
22-Apr-2024 21:00Overcast Clouds-13°C9 mph, NW100%279m1017hPa93%